Here is the Quick Look data you requested

The Data originates at the National Weather Service, and is made available here by the UAlbany Department of Atmospheric and Environmental Sciences

Surface Observations

KBDL 171551Z 00000KT 10SM CLR 10/M02 A3031 RMK AO2 SLP264 T01001017=
KBDR 171552Z 00000KT 10SM CLR 11/M02 A3032 RMK AO2 SLP265 T01061017=
KDXR 171553Z 33004KT 10SM CLR 11/M01 A3032 RMK AO2 SLP269 T01061006=
KGON 171556Z 10SM CLR 12/00 A3030 RMK AO2 SLP259 T01170000=
KHFD 171553Z VRB03KT 10SM CLR 11/M01 A3031 RMK AO2 SLP264 T01061011=
KHVN 171553Z VRB03KT 10SM CLR 11/M02 A3031 RMK AO2 SLP263 T01111022=
KIJD 171552Z AUTO VRB03KT 10SM CLR 12/M02 A3030 RMK AO2 SLP260 T01171022=
KMMK 171553Z AUTO 00000KT 10SM CLR 11/M01 A3031 RMK AO2 SLP263 T01061011=
KOXC 171551Z 00000KT 10SM CLR 09/M02 A3030 RMK AO2 SLP279 T00891022=